Time;durP1;ratioP1;P1;durP2;ratioP2;P2;SDS_P1;SDS_P2;PMS_P1;PMS_P2;Temp;Humidity;BMP_temperature;BMP_pressure;BME280_temperature;BME280_humidity;BME280_pressure;Samples;Min_cycle;Max_cycle;Signal;HPM_P1;HPM_P2
2022/03/18 00:00:34;;;;;;;0.20;0.20;;;8.70;99.90;;;;;;5035036;28;20536;-72
2022/03/18 00:03:00;;;;;;;0.65;0.65;;;8.70;99.90;;;;;;5034764;28;20121;-73
2022/03/18 00:05:26;;;;;;;0.30;0.30;;;8.70;99.90;;;;;;5034251;28;20043;-73
2022/03/18 00:07:53;;;;;;;0.20;0.20;;;8.70;99.90;;;;;;5033321;28;20467;-72
2022/03/18 00:10:19;;;;;;;0.30;0.30;;;8.70;99.90;;;;;;5033357;28;20032;-74
2022/03/18 00:12:46;;;;;;;2.92;2.72;;;8.70;99.90;;;;;;5034623;28;20025;-72
2022/03/18 00:15:13;;;;;;;4.47;1.30;;;8.80;99.90;;;;;;5034407;28;20117;-72
2022/03/18 00:17:39;;;;;;;0.20;0.20;;;8.80;99.90;;;;;;5034156;28;20033;-72
2022/03/18 00:20:06;;;;;;;0.20;0.20;;;8.80;99.90;;;;;;5033151;28;20030;-74
2022/03/18 00:22:32;;;;;;;5.28;3.75;;;8.80;99.90;;;;;;5034381;28;20037;-74
2022/03/18 00:24:58;;;;;;;1.13;1.10;;;8.80;99.90;;;;;;5032991;28;20030;-74
2022/03/18 00:27:26;;;;;;;0.38;0.38;;;8.70;99.90;;;;;;5032843;28;20063;-74
2022/03/18 00:29:54;;;;;;;0.20;0.20;;;8.60;99.90;;;;;;5032945;28;20021;-75
2022/03/18 00:32:21;;;;;;;1.38;1.27;;;8.60;99.90;;;;;;5034044;28;20481;-74
2022/03/18 00:34:46;;;;;;;0.10;0.10;;;8.40;99.90;;;;;;5032959;28;20636;-74
2022/03/18 00:37:12;;;;;;;0.20;0.20;;;8.40;99.90;;;;;;5034016;28;20079;-74
2022/03/18 00:39:38;;;;;;;1.02;0.98;;;8.40;99.90;;;;;;5034116;28;20100;-74
2022/03/18 00:42:04;;;;;;;1.45;1.45;;;8.40;99.90;;;;;;5034102;28;20032;-74
2022/03/18 00:44:30;;;;;;;0.40;0.40;;;8.40;99.90;;;;;;5032632;28;20029;-74
2022/03/18 00:46:56;;;;;;;0.52;0.52;;;8.40;99.90;;;;;;5033636;28;20496;-74
2022/03/18 00:52:26;;;;;;;0.20;0.20;;;8.40;99.90;;;;;;5032481;28;20032;-75
2022/03/18 00:54:52;;;;;;;0.30;0.30;;;8.50;99.90;;;;;;5033848;28;20028;-74
2022/03/18 00:57:17;;;;;;;0.38;0.38;;;8.50;99.90;;;;;;5032314;28;20025;-72
2022/03/18 00:59:43;;;;;;;0.10;0.10;;;8.50;99.90;;;;;;5032463;28;20048;-72
2022/03/18 01:02:09;;;;;;;1.85;1.75;;;8.30;99.90;;;;;;5032274;28;20025;-72
2022/03/18 01:04:36;;;;;;;1.02;1.02;;;8.40;99.90;;;;;;5033453;28;20033;-73
2022/03/18 01:07:01;;;;;;;2.28;2.08;;;8.40;99.90;;;;;;5048616;28;20408;-73
2022/03/18 01:09:27;;;;;;;6.13;3.50;;;8.40;99.90;;;;;;5015673;28;20028;-73
2022/03/18 01:11:54;;;;;;;0.17;0.17;;;8.30;99.90;;;;;;5033495;28;20080;-73
2022/03/18 01:14:20;;;;;;;0.20;0.20;;;8.30;99.90;;;;;;5032157;28;20033;-73
2022/03/18 01:16:47;;;;;;;0.32;0.32;;;8.30;99.90;;;;;;5032124;28;20083;-73
2022/03/18 01:19:12;;;;;;;0.60;0.60;;;8.20;99.90;;;;;;5032069;28;20025;-73
2022/03/18 01:21:38;;;;;;;0.38;0.38;;;8.30;99.90;;;;;;5033179;28;20033;-73
2022/03/18 01:24:05;;;;;;;0.20;0.20;;;8.20;99.90;;;;;;5032942;28;20496;-73
2022/03/18 01:26:31;;;;;;;0.77;0.77;;;8.20;99.90;;;;;;5032997;28;20021;-73
2022/03/18 01:28:58;;;;;;;0.20;0.20;;;8.20;99.90;;;;;;5032714;28;20052;-73
2022/03/18 01:31:25;;;;;;;0.20;0.20;;;8.10;99.90;;;;;;5032971;28;20025;-73
2022/03/18 01:33:51;;;;;;;0.20;0.20;;;8.10;99.90;;;;;;5032998;28;20044;-74
2022/03/18 01:36:17;;;;;;;3.72;1.95;;;8.00;99.90;;;;;;5033050;28;20026;-73
2022/03/18 01:38:42;;;;;;;0.30;0.30;;;8.00;99.90;;;;;;5031657;28;20025;-73
2022/03/18 01:41:08;;;;;;;3.00;0.95;;;7.80;99.90;;;;;;5048299;28;20054;-73
2022/03/18 01:43:39;;;;;;;0.80;0.80;;;7.80;99.90;;;;;;5031706;28;20017;-73
2022/03/18 01:46:05;;;;;;;0.30;0.30;;;8.00;99.90;;;;;;5032559;28;20017;-73
2022/03/18 01:48:31;;;;;;;1.58;1.48;;;7.90;99.90;;;;;;5031584;28;20044;-73
2022/03/18 01:50:57;;;;;;;0.65;0.65;;;8.00;99.90;;;;;;5031423;28;20021;-73
2022/03/18 01:53:23;;;;;;;10.30;8.05;;;8.00;99.90;;;;;;5031348;28;20033;-73
2022/03/18 01:55:49;;;;;;;1.20;1.17;;;8.10;99.90;;;;;;5031239;28;20034;-74
2022/03/18 01:58:15;;;;;;;0.30;0.30;;;8.10;99.90;;;;;;5032647;28;20040;-73
2022/03/18 02:00:40;;;;;;;1.58;1.20;;;8.00;99.90;;;;;;5032556;28;20218;-73
2022/03/18 02:03:06;;;;;;;1.15;1.15;;;8.00;99.90;;;;;;5032643;28;20025;-73
2022/03/18 02:05:33;;;;;;;16.88;4.15;;;8.00;99.90;;;;;;5030841;28;20489;-74
2022/03/18 02:08:01;;;;;;;0.40;0.40;;;7.80;99.90;;;;;;5032519;28;20497;-73
2022/03/18 02:10:27;;;;;;;0.65;0.65;;;7.70;99.90;;;;;;5032484;28;20022;-73
2022/03/18 02:12:53;;;;;;;0.30;0.30;;;7.80;99.90;;;;;;5032406;28;20100;-73
2022/03/18 02:15:18;;;;;;;1.17;1.17;;;7.80;99.90;;;;;;5032232;28;20107;-73
2022/03/18 02:17:44;;;;;;;0.30;0.30;;;7.70;99.90;;;;;;5030944;28;20541;-73
2022/03/18 02:20:10;;;;;;;0.90;0.85;;;7.70;99.90;;;;;;5031101;28;20033;-73
2022/03/18 02:22:42;;;;;;;0.20;0.20;;;7.70;99.90;;;;;;5032290;28;20485;-73
2022/03/18 02:25:14;;;;;;;2.22;2.13;;;7.80;99.90;;;;;;5032014;28;20021;-73
2022/03/18 02:27:53;;;;;;;0.15;0.15;;;7.70;99.90;;;;;;5047487;28;20032;-73
2022/03/18 02:30:18;;;;;;;6.50;2.80;;;7.70;99.90;;;;;;5030812;28;20021;-73
2022/03/18 02:32:44;;;;;;;0.20;0.20;;;7.80;99.90;;;;;;5032144;28;20507;-74
2022/03/18 02:35:10;;;;;;;0.40;0.40;;;7.80;99.90;;;;;;5032041;28;20044;-73
2022/03/18 02:37:36;;;;;;;0.20;0.20;;;7.90;99.90;;;;;;5030882;28;20022;-73
2022/03/18 02:40:02;;;;;;;0.75;0.38;;;8.00;99.90;;;;;;5032122;28;20021;-73
2022/03/18 02:42:27;;;;;;;0.55;0.55;;;8.00;99.90;;;;;;5029803;28;20079;-74
2022/03/18 02:44:54;;;;;;;0.40;0.40;;;7.70;99.90;;;;;;5031732;28;20037;-73
2022/03/18 02:47:20;;;;;;;0.20;0.20;;;7.60;99.90;;;;;;5030794;28;20035;-73
2022/03/18 02:49:46;;;;;;;0.30;0.30;;;7.30;99.90;;;;;;5030648;28;20052;-73
2022/03/18 02:52:14;;;;;;;0.35;0.35;;;7.10;99.90;;;;;;5031666;28;20033;-73
2022/03/18 02:54:41;;;;;;;0.30;0.30;;;7.20;99.90;;;;;;5030485;28;20534;-73
2022/03/18 02:57:07;;;;;;;0.20;0.20;;;7.10;99.90;;;;;;5030375;28;20025;-73
2022/03/18 02:59:33;;;;;;;0.63;0.63;;;7.20;99.90;;;;;;5031726;28;20032;-73
2022/03/18 03:01:59;;;;;;;19.23;12.45;;;7.20;99.90;;;;;;5031734;28;20022;-73
2022/03/18 03:04:25;;;;;;;7.90;2.40;;;7.10;99.90;;;;;;5030455;28;20079;-74
2022/03/18 03:09:35;;;;;;;0.55;0.55;;;7.00;99.90;;;;;;5030294;28;20030;-75
2022/03/18 03:12:01;;;;;;;0.50;0.50;;;7.10;99.90;;;;;;5030269;28;20117;-73
2022/03/18 03:14:27;;;;;;;0.20;0.20;;;7.10;99.90;;;;;;5031533;28;20040;-73
2022/03/18 03:16:53;;;;;;;2.28;2.08;;;7.00;99.90;;;;;;5030213;28;20029;-73
2022/03/18 03:19:19;;;;;;;0.20;0.20;;;6.90;99.90;;;;;;5030398;28;20025;-73
2022/03/18 03:21:44;;;;;;;0.50;0.50;;;6.80;99.90;;;;;;5030303;28;20040;-73
2022/03/18 03:24:10;;;;;;;0.28;0.28;;;6.90;99.90;;;;;;5031914;28;20025;-73
2022/03/18 03:26:36;;;;;;;0.30;0.30;;;6.90;99.90;;;;;;5030336;28;20108;-73
2022/03/18 03:29:02;;;;;;;1.05;1.02;;;6.90;99.90;;;;;;5031490;28;20017;-73
2022/03/18 03:31:28;;;;;;;0.13;0.13;;;7.00;99.90;;;;;;5031613;28;20028;-73
2022/03/18 03:33:53;;;;;;;0.20;0.20;;;6.80;99.90;;;;;;5031427;28;20021;-73
2022/03/18 03:36:19;;;;;;;0.32;0.32;;;6.80;99.90;;;;;;5013589;28;20033;-73
2022/03/18 03:38:45;;;;;;;0.43;0.43;;;6.70;99.90;;;;;;5030231;28;20028;-73
2022/03/18 03:41:11;;;;;;;0.20;0.20;;;6.70;99.90;;;;;;5031421;28;20025;-73
2022/03/18 03:43:38;;;;;;;0.30;0.30;;;6.70;99.90;;;;;;5031455;28;20076;-75
2022/03/18 03:46:04;;;;;;;0.20;0.20;;;6.70;99.90;;;;;;5031062;28;20029;-73
2022/03/18 03:48:30;;;;;;;0.40;0.40;;;6.70;99.90;;;;;;5031452;28;20040;-73
2022/03/18 03:50:56;;;;;;;0.77;0.77;;;6.70;99.90;;;;;;5030017;28;20037;-73
2022/03/18 03:53:22;;;;;;;4.75;1.40;;;6.70;99.90;;;;;;5031943;28;20083;-73
2022/03/18 03:55:48;;;;;;;1.77;1.67;;;6.80;99.90;;;;;;5034720;28;20501;-73
2022/03/18 03:58:14;;;;;;;2.13;2.03;;;7.00;99.90;;;;;;5034817;28;20025;-73
2022/03/18 04:00:40;;;;;;;3.03;2.83;;;7.10;99.90;;;;;;5033520;28;20049;-73
2022/03/18 04:03:06;;;;;;;3.53;3.15;;;7.10;99.90;;;;;;5034848;28;20564;-73
2022/03/18 04:05:33;;;;;;;2.35;2.15;;;7.10;99.90;;;;;;5016273;28;20125;-73
2022/03/18 04:08:00;;;;;;;3.83;2.35;;;7.00;99.90;;;;;;5034878;28;20507;-75
2022/03/18 04:10:26;;;;;;;0.30;0.30;;;7.10;99.90;;;;;;5034723;28;20539;-74
2022/03/18 04:12:53;;;;;;;0.30;0.30;;;7.00;99.90;;;;;;5034484;28;20381;-74
2022/03/18 04:15:18;;;;;;;0.20;0.20;;;7.00;99.90;;;;;;5049812;28;20029;-73
2022/03/18 04:17:46;;;;;;;0.20;0.20;;;7.00;99.90;;;;;;5034360;28;20028;-73
2022/03/18 04:20:15;;;;;;;0.25;0.25;;;7.00;99.90;;;;;;5033381;28;20080;-73
2022/03/18 04:22:41;;;;;;;0.20;0.20;;;7.00;99.90;;;;;;5034636;28;20021;-73
2022/03/18 04:25:08;;;;;;;1.40;1.38;;;6.80;99.90;;;;;;5034303;28;20120;-73
2022/03/18 04:27:35;;;;;;;2.45;1.23;;;6.80;99.90;;;;;;5034214;28;20074;-73
2022/03/18 04:30:01;;;;;;;0.68;0.68;;;6.90;99.90;;;;;;5033107;28;20022;-73
2022/03/18 04:32:27;;;;;;;0.90;0.90;;;6.90;99.90;;;;;;5032939;28;20052;-73
2022/03/18 04:34:53;;;;;;;0.30;0.30;;;6.90;99.90;;;;;;5032863;28;20533;-73
2022/03/18 04:37:18;;;;;;;0.25;0.25;;;6.90;99.90;;;;;;5034074;28;20492;-73
2022/03/18 04:39:44;;;;;;;1.45;1.40;;;6.80;99.90;;;;;;5034036;28;20123;-73
2022/03/18 04:42:10;;;;;;;0.93;0.93;;;6.70;99.90;;;;;;5032666;28;20124;-74
2022/03/18 04:44:35;;;;;;;0.20;0.20;;;6.70;99.90;;;;;;5032750;28;20025;-73
2022/03/18 04:47:01;;;;;;;5.63;3.25;;;6.60;99.90;;;;;;5049160;28;20088;-73
2022/03/18 04:49:27;;;;;;;3.45;3.22;;;6.60;99.90;;;;;;5033970;28;20405;-73
2022/03/18 04:51:53;;;;;;;0.20;0.20;;;6.40;99.90;;;;;;5033748;28;20064;-73
2022/03/18 04:54:18;;;;;;;3.17;2.88;;;6.40;99.90;;;;;;5033740;28;20068;-73
2022/03/18 04:59:28;;;;;;;3.85;3.55;;;6.20;99.90;;;;;;5032473;28;20409;-73
2022/03/18 05:01:54;;;;;;;0.52;0.52;;;6.10;99.90;;;;;;5033809;28;20025;-73
2022/03/18 05:04:20;;;;;;;1.08;1.08;;;6.20;99.90;;;;;;5032633;28;20029;-73
2022/03/18 05:06:46;;;;;;;0.52;0.52;;;6.10;99.90;;;;;;5033392;28;20014;-73
2022/03/18 05:09:13;;;;;;;0.40;0.40;;;6.20;99.90;;;;;;5033527;28;20022;-74
2022/03/18 05:11:38;;;;;;;0.45;0.45;;;6.30;99.90;;;;;;5033372;28;20105;-73
2022/03/18 05:14:04;;;;;;;4.85;3.15;;;6.40;99.90;;;;;;5031998;28;20112;-74
2022/03/18 05:16:30;;;;;;;0.40;0.40;;;6.50;99.90;;;;;;5033424;28;20385;-73
2022/03/18 05:18:56;;;;;;;0.30;0.30;;;6.30;99.90;;;;;;5033386;28;20067;-73
2022/03/18 05:21:21;;;;;;;0.40;0.40;;;6.40;99.90;;;;;;5033366;28;20053;-73
2022/03/18 05:23:47;;;;;;;1.65;1.27;;;6.30;99.90;;;;;;5033207;28;20022;-73
2022/03/18 05:26:13;;;;;;;0.50;0.50;;;6.30;99.90;;;;;;5032945;28;20033;-73
2022/03/18 05:28:40;;;;;;;17.20;2.70;;;6.30;99.90;;;;;;5031922;28;20022;-73
2022/03/18 05:31:06;;;;;;;1.05;0.95;;;6.50;99.90;;;;;;5031930;28;20049;-73
2022/03/18 05:33:32;;;;;;;1.27;0.50;;;6.30;99.90;;;;;;5033245;28;20515;-73
2022/03/18 05:35:58;;;;;;;1.48;1.38;;;6.10;99.90;;;;;;5032896;28;20489;-73
2022/03/18 05:38:25;;;;;;;0.20;0.20;;;6.10;99.90;;;;;;5031733;28;20516;-73
2022/03/18 05:40:52;;;;;;;1.15;0.75;;;6.10;99.90;;;;;;5033013;28;20025;-73
2022/03/18 05:43:17;;;;;;;0.20;0.20;;;6.10;99.90;;;;;;5046716;22;20183;-70
2022/03/18 05:45:43;;;;;;;0.57;0.55;;;6.30;99.90;;;;;;5032379;28;20564;-69
2022/03/18 05:48:09;;;;;;;4.45;1.85;;;6.30;99.90;;;;;;5031368;28;20029;-70
2022/03/18 05:50:35;;;;;;;4.55;4.25;;;6.40;99.90;;;;;;5032698;28;20144;-70
2022/03/18 05:53:01;;;;;;;1.55;0.75;;;6.50;99.90;;;;;;5031660;28;20036;-70
2022/03/18 05:56:52;;;;;;;1.85;1.75;;;6.30;99.90;;;;;;5032614;28;20221;-70
2022/03/18 05:58:14;;;;;;;0.30;0.30;;;6.40;99.90;;;;;;5032514;28;20026;-70
2022/03/18 06:00:44;;;;;;;1.00;0.93;;;6.50;99.90;;;;;;5032932;28;20435;-70
2022/03/18 06:03:12;;;;;;;0.65;0.65;;;6.50;99.90;;;;;;5032532;28;20030;-70
2022/03/18 06:05:39;;;;;;;0.20;0.20;;;6.50;99.90;;;;;;5031888;28;20516;-70
2022/03/18 06:13:34;;;;;;;2.83;2.42;;;6.60;99.90;;;;;;5032415;28;20025;-70
2022/03/18 06:15:59;;;;;;;1.25;1.25;;;6.70;99.90;;;;;;5030818;28;20033;-70
2022/03/18 06:18:25;;;;;;;0.50;0.50;;;6.50;99.90;;;;;;5032273;28;20425;-70
2022/03/18 06:20:51;;;;;;;4.22;4.03;;;6.50;99.90;;;;;;5032315;28;20033;-71
2022/03/18 06:23:17;;;;;;;0.20;0.20;;;6.40;99.90;;;;;;5032150;28;20476;-70
2022/03/18 06:25:43;;;;;;;2.65;2.45;;;6.50;99.90;;;;;;5031096;28;20034;-70
2022/03/18 06:28:09;;;;;;;1.58;1.48;;;6.30;99.90;;;;;;5031543;28;20025;-70
2022/03/18 06:30:35;;;;;;;6.15;5.60;;;6.10;99.90;;;;;;5032117;28;20101;-70
2022/03/18 06:33:01;;;;;;;3.42;2.78;;;5.90;99.90;;;;;;5032265;28;20017;-70
2022/03/18 06:35:27;;;;;;;2.65;2.10;;;5.80;99.90;;;;;;5047248;28;20147;-70
2022/03/18 06:37:54;;;;;;;2.25;0.90;;;5.60;99.90;;;;;;5031769;28;20485;-70
2022/03/18 06:40:20;;;;;;;23.88;9.18;;;5.50;99.90;;;;;;5031387;28;20119;-70
2022/03/18 06:42:46;;;;;;;4.30;3.65;;;5.40;99.90;;;;;;5030308;28;20503;-70
2022/03/18 06:45:12;;;;;;;4.10;2.45;;;5.50;99.90;;;;;;5031746;28;20021;-70
2022/03/18 06:47:38;;;;;;;2.92;2.58;;;5.60;99.90;;;;;;5031932;28;20035;-70
2022/03/18 06:50:06;;;;;;;6.03;1.95;;;5.70;99.90;;;;;;5031980;28;20029;-70
2022/03/18 06:52:32;;;;;;;6.75;2.35;;;5.80;99.90;;;;;;5031911;28;20479;-71
2022/03/18 06:54:59;;;;;;;5.40;4.93;;;5.90;99.90;;;;;;5032052;28;20029;-70
2022/03/18 06:57:24;;;;;;;2.78;0.68;;;5.90;99.90;;;;;;5031505;28;20025;-70
2022/03/18 06:59:50;;;;;;;1.15;1.15;;;5.90;99.90;;;;;;5032076;28;20036;-70
2022/03/18 07:02:16;;;;;;;0.63;0.63;;;5.90;99.90;;;;;;5031754;28;20025;-71
2022/03/18 07:04:42;;;;;;;0.30;0.30;;;5.90;99.90;;;;;;5032041;28;20025;-71
2022/03/18 07:07:07;;;;;;;4.05;2.55;;;6.10;99.90;;;;;;5031712;28;20469;-71
2022/03/18 07:09:33;;;;;;;0.63;0.63;;;6.20;99.90;;;;;;5031653;28;20393;-70
2022/03/18 07:12:00;;;;;;;0.77;0.77;;;6.20;99.90;;;;;;5031630;28;20064;-70
2022/03/18 07:14:26;;;;;;;0.50;0.50;;;6.30;99.90;;;;;;5031663;28;20040;-70
2022/03/18 07:19:38;;;;;;;9.02;4.50;;;6.70;99.90;;;;;;5031595;28;20030;-70
2022/03/18 07:22:05;;;;;;;3.83;3.42;;;6.80;99.90;;;;;;5047138;28;20022;-70
2022/03/18 07:24:31;;;;;;;0.20;0.20;;;6.90;99.90;;;;;;5030249;28;20029;-70
2022/03/18 07:26:56;;;;;;;11.90;4.75;;;6.80;99.90;;;;;;5031495;28;20072;-71
2022/03/18 07:29:22;;;;;;;0.82;0.82;;;6.90;99.90;;;;;;5035192;28;20025;-70
2022/03/18 07:31:48;;;;;;;1.10;1.10;;;6.90;99.90;;;;;;5035276;28;20029;-71
2022/03/18 07:34:14;;;;;;;5.22;3.80;;;7.20;99.90;;;;;;5033301;28;20017;-71
2022/03/18 07:36:39;;;;;;;1.85;1.10;;;7.30;99.90;;;;;;5034204;28;20526;-70
2022/03/18 07:39:05;;;;;;;2.00;1.05;;;7.20;99.90;;;;;;5035167;28;20029;-70
2022/03/18 07:41:31;;;;;;;3.92;3.72;;;7.30;99.90;;;;;;5035235;28;20539;-71
2022/03/18 07:43:57;;;;;;;0.57;0.57;;;7.60;99.90;;;;;;5034934;28;20500;-71
2022/03/18 07:46:23;;;;;;;10.88;4.63;;;7.70;99.90;;;;;;5033774;28;20025;-70
2022/03/18 07:49:04;;;;;;;0.65;0.65;;;7.80;99.90;;;;;;5025890;28;20479;-70
2022/03/18 07:51:30;;;;;;;3.03;2.80;;;7.80;99.90;;;;;;5005226;28;20064;-70
2022/03/18 07:53:56;;;;;;;3.30;2.75;;;7.90;99.90;;;;;;5023953;28;20029;-70
2022/03/18 07:56:23;;;;;;;1.48;0.95;;;7.80;99.90;;;;;;5024520;28;20037;-70
2022/03/18 07:58:48;;;;;;;0.65;0.65;;;8.10;99.90;;;;;;5023993;28;20087;-71
2022/03/18 08:01:15;;;;;;;18.00;6.88;;;8.30;99.90;;;;;;5023757;28;20037;-73
2022/03/18 08:03:40;;;;;;;12.35;5.38;;;8.50;99.90;;;;;;5023202;28;20029;-73
2022/03/18 08:06:06;;;;;;;0.30;0.30;;;8.30;99.90;;;;;;5025138;28;20829;-73
2022/03/18 08:08:32;;;;;;;8.48;5.35;;;8.20;99.90;;;;;;5025346;28;20389;-72
2022/03/18 08:10:58;;;;;;;9.40;5.85;;;8.20;99.90;;;;;;5027493;28;20460;-73
2022/03/18 08:13:24;;;;;;;2.13;1.65;;;8.20;99.90;;;;;;5024326;28;20071;-77
2022/03/18 08:15:50;;;;;;;2.08;1.55;;;8.20;99.90;;;;;;5025922;28;20060;-78
2022/03/18 08:18:16;;;;;;;7.43;2.35;;;8.20;99.90;;;;;;5021895;28;20053;-75
2022/03/18 08:20:42;;;;;;;0.40;0.40;;;8.20;99.90;;;;;;5021246;28;20103;-76
2022/03/18 08:23:09;;;;;;;5.35;4.60;;;8.30;99.90;;;;;;5021494;28;21351;-77
2022/03/18 08:25:35;;;;;;;4.65;4.35;;;8.40;99.90;;;;;;5022166;28;20040;-76
2022/03/18 08:28:01;;;;;;;9.10;5.88;;;8.30;99.90;;;;;;5040737;28;20033;-77
2022/03/18 08:30:27;;;;;;;3.45;3.15;;;8.50;99.90;;;;;;5025818;28;20388;-77
2022/03/18 08:32:53;;;;;;;6.32;3.30;;;8.50;99.90;;;;;;5024924;28;20030;-77
2022/03/18 08:35:19;;;;;;;0.90;0.90;;;8.60;99.90;;;;;;5024856;28;20041;-76
2022/03/18 08:37:56;;;;;;;2.17;1.63;;;8.70;99.90;;;;;;5024915;28;20440;-78
2022/03/18 08:40:28;;;;;;;9.32;6.03;;;8.80;99.90;;;;;;5040325;28;20030;-77
2022/03/18 08:42:56;;;;;;;0.52;0.52;;;8.90;99.90;;;;;;5022683;28;20033;-78
2022/03/18 08:45:22;;;;;;;0.68;0.68;;;8.90;99.90;;;;;;5024339;28;20065;-78
2022/03/18 08:47:48;;;;;;;4.78;3.95;;;9.10;99.90;;;;;;5024696;28;20022;-78
2022/03/18 08:50:15;;;;;;;2.83;2.63;;;9.00;99.90;;;;;;5024856;28;20222;-77
2022/03/18 08:52:41;;;;;;;10.75;5.82;;;9.10;99.90;;;;;;5022805;28;20017;-78
2022/03/18 08:55:08;;;;;;;13.05;3.42;;;9.20;99.90;;;;;;5024083;28;20163;-78
2022/03/18 08:57:37;;;;;;;3.40;3.20;;;9.30;99.90;;;;;;5022804;28;20025;-78
2022/03/18 09:00:09;;;;;;;5.78;4.93;;;9.40;99.90;;;;;;5006775;28;20076;-77
2022/03/18 09:02:36;;;;;;;17.17;10.93;;;9.60;99.90;;;;;;5024490;28;20088;-77
2022/03/18 09:05:04;;;;;;;13.77;11.50;;;9.60;99.90;;;;;;5024397;28;20109;-78
2022/03/18 09:07:30;;;;;;;9.07;3.50;;;9.40;99.90;;;;;;5039031;28;20086;-78
2022/03/18 09:09:57;;;;;;;0.88;0.88;;;9.30;99.90;;;;;;5024340;28;20034;-76
2022/03/18 09:12:22;;;;;;;2.75;2.63;;;9.20;99.90;;;;;;5023427;28;20030;-77
2022/03/18 09:14:48;;;;;;;7.22;3.10;;;9.40;99.90;;;;;;5023153;28;20060;-78
2022/03/18 09:17:14;;;;;;;8.50;6.07;;;9.60;99.90;;;;;;5022781;28;20076;-77
2022/03/18 09:19:40;;;;;;;2.65;2.45;;;9.70;99.90;;;;;;5021360;28;20065;-76
2022/03/18 09:22:07;;;;;;;2.53;1.60;;;9.90;99.90;;;;;;5023437;28;20056;-76
2022/03/18 09:24:34;;;;;;;2.53;2.35;;;10.00;99.90;;;;;;5022247;28;20473;-78
2022/03/18 09:27:00;;;;;;;3.65;1.55;;;10.20;99.90;;;;;;5023972;28;20025;-77
2022/03/18 09:29:26;;;;;;;1.95;1.85;;;10.40;99.90;;;;;;5005426;28;20112;-77
2022/03/18 09:31:53;;;;;;;2.88;1.90;;;10.50;99.90;;;;;;5022004;28;20171;-77
2022/03/18 09:34:24;;;;;;;2.20;1.92;;;10.40;99.90;;;;;;5023822;28;20017;-77
2022/03/18 09:36:52;;;;;;;23.23;11.63;;;10.40;99.90;;;;;;5022707;28;20112;-76
2022/03/18 09:39:19;;;;;;;3.40;3.10;;;10.30;99.90;;;;;;5023472;28;20906;-78
2022/03/18 09:41:45;;;;;;;0.60;0.60;;;10.20;99.80;;;;;;5022593;28;20849;-78
2022/03/18 09:44:10;;;;;;;0.52;0.52;;;10.30;99.20;;;;;;5023245;28;20033;-77
2022/03/18 09:46:37;;;;;;;10.02;4.82;;;10.60;98.30;;;;;;5024027;28;20041;-78
2022/03/18 09:49:06;;;;;;;2.10;1.92;;;10.80;97.40;;;;;;5022306;28;20075;-78
2022/03/18 09:51:32;;;;;;;2.33;2.22;;;11.40;97.10;;;;;;5005849;28;20029;-78
2022/03/18 09:53:59;;;;;;;8.88;7.80;;;12.00;93.00;;;;;;5024640;28;20032;-77
2022/03/18 09:56:24;;;;;;;10.98;3.83;;;12.40;90.50;;;;;;5025510;28;20037;-77
2022/03/18 09:58:50;;;;;;;10.43;5.25;;;12.50;87.00;;;;;;5023989;28;20043;-77
2022/03/18 10:01:16;;;;;;;7.38;4.68;;;12.70;81.90;;;;;;5025640;28;20029;-77
2022/03/18 10:03:43;;;;;;;0.68;0.68;;;12.90;81.00;;;;;;5024586;28;20092;-77
2022/03/18 10:06:11;;;;;;;6.10;3.08;;;12.70;80.10;;;;;;5024581;28;20531;-77
2022/03/18 10:08:41;;;;;;;14.70;6.63;;;12.80;79.00;;;;;;5026107;28;20461;-77
2022/03/18 10:11:25;;;;;;;5.80;3.67;;;13.10;77.00;;;;;;5027106;28;20052;-77
2022/03/18 10:13:56;;;;;;;5.40;4.15;;;13.50;75.60;;;;;;5008367;28;20064;-76
2022/03/18 10:16:44;;;;;;;30.70;9.65;;;13.80;75.80;;;;;;5026927;28;20029;-76
2022/03/18 10:19:17;;;;;;;8.80;3.88;;;13.80;71.90;;;;;;5023582;28;20113;-77
2022/03/18 10:21:53;;;;;;;8.05;4.68;;;14.20;71.60;;;;;;5021596;28;20036;-75
2022/03/18 10:24:30;;;;;;;4.90;2.60;;;14.50;69.80;;;;;;5020506;28;20037;-76
2022/03/18 10:27:15;;;;;;;20.80;8.57;;;14.40;66.90;;;;;;5026867;28;20041;-76
2022/03/18 10:29:46;;;;;;;8.48;4.72;;;14.00;66.40;;;;;;5024673;28;20393;-77
2022/03/18 10:32:13;;;;;;;3.90;3.10;;;14.10;66.30;;;;;;5026224;28;20047;-77
2022/03/18 10:37:26;;;;;;;2.17;1.42;;;14.20;63.90;;;;;;5034123;28;20156;-75
2022/03/18 10:40:00;;;;;;;14.80;6.60;;;14.40;63.70;;;;;;5032265;28;20030;-75
2022/03/18 10:42:26;;;;;;;13.18;5.57;;;14.30;64.20;;;;;;5030294;28;20097;-75
2022/03/18 10:45:01;;;;;;;6.78;5.10;;;14.10;64.20;;;;;;5032620;28;20177;-76
2022/03/18 10:47:42;;;;;;;6.47;1.65;;;14.00;64.40;;;;;;5032992;28;20083;-76
2022/03/18 10:50:11;;;;;;;3.03;2.80;;;14.20;65.40;;;;;;5031240;28;20028;-76
2022/03/18 10:52:48;;;;;;;7.25;5.05;;;14.30;64.50;;;;;;5032077;28;20551;-76
2022/03/18 10:55:20;;;;;;;1.83;1.73;;;14.80;63.30;;;;;;5015732;28;20033;-76
2022/03/18 10:58:01;;;;;;;14.48;7.30;;;14.70;61.20;;;;;;5032656;28;20029;-77
2022/03/18 11:00:32;;;;;;;11.55;6.95;;;14.50;62.60;;;;;;5038556;28;20060;-80
2022/03/18 11:02:59;;;;;;;0.55;0.55;;;14.10;62.50;;;;;;5036872;28;20032;-74
2022/03/18 11:05:34;;;;;;;14.68;6.28;;;14.30;63.90;;;;;;5036649;28;20029;-76
2022/03/18 11:08:03;;;;;;;2.25;2.08;;;14.60;62.50;;;;;;5036068;28;20119;-75
2022/03/18 11:13:15;;;;;;;3.10;1.48;;;15.70;60.20;;;;;;5035496;28;20072;-75
2022/03/18 11:15:45;;;;;;;24.55;12.02;;;15.80;59.80;;;;;;5035254;28;20123;-75
2022/03/18 11:18:13;;;;;;;10.25;6.32;;;15.70;58.40;;;;;;5035289;28;20102;-74
2022/03/18 11:20:43;;;;;;;1.85;1.75;;;15.80;58.50;;;;;;5035437;28;20033;-75
2022/03/18 11:23:16;;;;;;;4.82;2.55;;;15.40;58.60;;;;;;5035584;28;20025;-75
2022/03/18 11:25:43;;;;;;;6.40;3.97;;;14.90;60.60;;;;;;5034566;28;20112;-75
2022/03/18 11:28:15;;;;;;;7.65;1.45;;;15.00;60.60;;;;;;5035684;28;20024;-75
2022/03/18 11:30:41;;;;;;;2.75;1.60;;;15.40;61.00;;;;;;5035599;28;20040;-75
2022/03/18 11:33:10;;;;;;;1.95;1.55;;;14.80;61.00;;;;;;5034670;28;20028;-75
2022/03/18 11:35:51;;;;;;;16.20;6.68;;;14.60;62.70;;;;;;5034574;28;20033;-74
2022/03/18 11:38:47;;;;;;;1.55;1.08;;;14.20;62.90;;;;;;5035865;28;20113;-75
2022/03/18 11:41:14;;;;;;;12.93;6.60;;;14.60;62.70;;;;;;5034389;28;20575;-75
2022/03/18 11:43:42;;;;;;;2.63;2.42;;;14.80;61.90;;;;;;5121057;22;20053;-73
2022/03/18 11:46:17;;;;;;;5.40;4.03;;;14.90;61.80;;;;;;5033318;28;20396;-72
2022/03/18 11:48:51;;;;;;;12.80;4.78;;;15.50;59.80;;;;;;5034822;28;20028;-71
2022/03/18 11:51:26;;;;;;;15.40;7.65;;;15.50;58.40;;;;;;5034591;28;20035;-72
2022/03/18 11:54:23;;;;;;;5.25;4.13;;;15.30;59.20;;;;;;5034405;28;20021;-72
2022/03/18 11:56:54;;;;;;;6.88;4.45;;;15.60;59.00;;;;;;5016619;28;20018;-71
2022/03/18 11:59:26;;;;;;;6.07;3.70;;;15.50;58.00;;;;;;5032916;28;20075;-72
2022/03/18 12:02:01;;;;;;;9.35;5.10;;;15.50;58.60;;;;;;5034511;28;20014;-72
2022/03/18 12:04:33;;;;;;;4.10;3.53;;;15.50;58.20;;;;;;5034458;28;20060;-73
2022/03/18 12:07:18;;;;;;;;;;;15.50;58.70;;;;;;5033459;28;20398;-71
2022/03/18 12:10:00;;;;;;;1.20;1.20;;;15.90;58.30;;;;;;5032930;28;20292;-72
2022/03/18 12:12:36;;;;;;;9.20;3.60;;;15.70;57.00;;;;;;5032508;28;20040;-72
2022/03/18 12:15:08;;;;;;;3.28;2.65;;;16.10;56.10;;;;;;5049083;28;20476;-72
2022/03/18 12:17:56;;;;;;;5.97;3.45;;;16.40;55.50;;;;;;5032768;28;20048;-71
2022/03/18 12:20:33;;;;;;;3.70;2.28;;;16.40;54.10;;;;;;5033669;28;20469;-71
2022/03/18 12:23:03;;;;;;;2.28;2.17;;;16.70;54.50;;;;;;5049533;28;20101;-72
2022/03/18 12:25:29;;;;;;;10.02;5.15;;;15.60;54.40;;;;;;5032857;28;20421;-72
2022/03/18 12:27:55;;;;;;;1.25;1.15;;;14.70;56.30;;;;;;5034083;28;20101;-72
2022/03/18 12:30:29;;;;;;;11.70;5.95;;;14.50;57.40;;;;;;5033590;28;20026;-71
2022/03/18 12:33:10;;;;;;;9.90;7.25;;;14.20;57.40;;;;;;5033899;28;20079;-72
2022/03/18 12:35:38;;;;;;;3.47;3.28;;;13.60;59.30;;;;;;5033799;28;20030;-71
2022/03/18 12:38:08;;;;;;;1.40;1.30;;;13.40;60.50;;;;;;5032776;28;20100;-71
2022/03/18 12:40:36;;;;;;;3.50;2.30;;;13.30;60.00;;;;;;5032613;28;20053;-72
2022/03/18 12:43:03;;;;;;;6.35;3.85;;;13.50;60.10;;;;;;5033633;28;20040;-72
2022/03/18 12:45:34;;;;;;;12.65;6.40;;;13.50;59.60;;;;;;5048752;28;20029;-73
2022/03/18 12:48:06;;;;;;;2.50;2.28;;;13.30;59.60;;;;;;5033796;28;20460;-72
2022/03/18 12:50:34;;;;;;;10.20;2.40;;;13.40;60.30;;;;;;5032406;28;20025;-73
2022/03/18 12:53:14;;;;;;;13.93;2.67;;;13.60;60.30;;;;;;5033545;28;20033;-73
2022/03/18 12:55:42;;;;;;;13.88;5.57;;;13.50;61.10;;;;;;5033176;28;20170;-71
2022/03/18 12:58:08;;;;;;;8.13;3.58;;;13.20;61.30;;;;;;5047337;28;20462;-71
2022/03/18 13:00:46;;;;;;;7.88;3.72;;;13.10;61.90;;;;;;5031684;28;20108;-74
2022/03/18 13:03:20;;;;;;;5.05;4.57;;;13.00;62.90;;;;;;5032107;28;20366;-74
2022/03/18 13:05:52;;;;;;;0.20;0.20;;;12.60;63.50;;;;;;5015543;28;20068;-73
2022/03/18 13:08:22;;;;;;;6.47;3.08;;;13.20;63.70;;;;;;5033538;28;20039;-75
2022/03/18 13:10:58;;;;;;;8.52;4.35;;;13.40;62.10;;;;;;5033200;28;20040;-71
2022/03/18 13:13:27;;;;;;;0.93;0.93;;;13.30;62.60;;;;;;5048342;28;20500;-71
2022/03/18 13:15:59;;;;;;;13.55;7.82;;;13.30;62.40;;;;;;5030743;28;20049;-71
2022/03/18 13:18:26;;;;;;;18.98;10.40;;;13.10;61.40;;;;;;5031876;28;20481;-73